AirNav   Everest Fuels
 
 1598 users online  

8WA6 Christensen Field Airport
Royal City, Washington, USA

GOING TO ROYAL CITY?


FAA INFORMATION EFFECTIVE 04 NOVEMBER 2021

Location

FAA Identifier: 8WA6
Lat/Long: 46-55-14.4950N 119-35-24.1220W
46-55.241583N 119-35.402033W
46.9206931,-119.5900339
(estimated)
Elevation: 1150 ft. / 351 m (estimated)
Variation: 19E (1985)
From city: 2 miles NE of ROYAL CITY, WA
Time zone: UTC -7 (UTC -8 during Standard Time)
Zip code: 99357

Airport Operations

Airport use: Private use. Permission required prior to landing
Activation date: 03/1976
Control tower: no
ARTCC: SEATTLE CENTER
FSS: SEATTLE FLIGHT SERVICE STATION
Attendance: UNATNDD
Wind indicator: no
Segmented circle: no
Lights: OWNERS USE ONLY BUT EMGCY CALL 509-346-2331.

Nearby radio navigation aids

VOR radial/distance  VOR name  Freq  Var
MWHr195/20.7MOSES LAKE VOR/DME115.0018E
EPHr173/28.3EPHRATA VORTAC112.6021E
ELNr079/36.1ELLENSBURG VOR/DME117.9021E
EATr124/38.3WENATCHEE VOR/DME111.0015E

Airport Services

Runway Information

Runway 7/25

Dimensions: 2500 x 22 ft. / 762 x 7 m
Surface: asphalt
Runway edge lights: low intensity
RUNWAY 7  RUNWAY 25
Traffic pattern: leftleft
Obstructions: 15 ft. bldg, 500 ft. from runway30 ft. pline, 1500 ft. from runway

Airport Ownership and Management from official FAA records

Ownership: Privately-owned
Owner: CHRISTENSEN BROS
4202 RD. 12 SW
ROYAL CITY, WA 99357
Phone 509-346-2331

Airport Operational Statistics

Aircraft based on the field: 5
Single engine airplanes: 5
    

Additional Remarks

FOR CD CTC GRANT COUNTY APCH AT 509-762-2842, WHEN APCH CLSD CTC SEATTLE ARTCC AT 253-351-3694.

Instrument Procedures

There are no published instrument procedures at 8WA6.

Some nearby airports with instrument procedures:

KMWH - Grant County International Airport (21 nm NE)
KEPH - Ephrata Municipal Airport (23 nm N)
KEAT - Pangborn Memorial Airport (38 nm NW)
KRLD - Richland Airport (39 nm S)
KELN - Bowers Field Airport (39 nm W)
 
Loc | Ops | Rwys | IFR | FBO | Links
Com | Nav | Svcs | Stats | Notes
Area around 8WA6 (Christensen Field Airport)
 
Road maps at: MapQuest Bing Google
 
Aerial photo
WARNING: Photo may not be current or correct
Aerial photo of 8WA6 (Christensen Field Airport)
Photo by Andrew S.
Photo taken 13-Aug-2006

Do you have a better or more recent aerial photo of Christensen Field Airport that you would like to share? If so, please send us your photo.

 
Sectional chart

 
Airport distance calculator
Flying to Christensen Field Airport? Find the distance to fly.

From to 8WA6

Sunrise and sunset
Times for 29-Nov-2021
 Local
(UTC-8)
 Zulu
(UTC)
Morning civil twilight06:4714:47
Sunrise07:2215:22
Sunset16:1200:12
Evening civil twilight16:4600:46

Current date and time
Zulu (UTC)  30-Nov-2021 00:10:42
Local (UTC-8)  29-Nov-2021 16:10:42
 
METAR
KMWH 
20nm NE 
292352Z 22006KT 10SM CLR 14/05 A3022 RMK AO2 SLP233 T01440050 10172 20122 53008
KEPH 
23nm N 
292353Z AUTO 21009KT 10SM CLR 13/05 A3020 RMK AO2 SLP229 T01280050 10167 20100 53008
KEAT 
38nm NW 
292355Z AUTO 32004KT 10SM CLR 12/06 A3020 RMK AO2 SLP228 T01220061 10161 20100 53007
KRLD 
39nm S 
292355Z AUTO 21010KT 10SM CLR 16/09 A3024 RMK AO2 T01600091 10178 20132
K1S5 
39nm SW 
292355Z AUTO 04005KT 10SM CLR 14/10 A3023 RMK AO2 T01430096 10170 20105
KELN 
39nm W 
292353Z AUTO 28005KT 10SM SCT070 SCT080 14/05 A3023 RMK AO2 SLP238 T01390050 10161 20139 53013
TAF
KMWH 
20nm NE 
291737Z 2918/3018 22004KT P6SM FEW110 FM292100 24007KT P6SM FEW070 SCT150 FM300500 21005KT P6SM BKN150 FM301400 19005KT P6SM OVC100
NOTAMs
Click for the latest NOTAMs
NOTAMs are issued by the DoD/FAA and will open in a separate window not controlled by AirNav.

 

 
 

Would you like to see your business listed on this page?

 If your business provides an interesting product or service to pilots, flight crews, aircraft, or users of the Christensen Field Airport, you should consider listing it here.  To start the listing process, click on the button below
 
Add a business
 

Other Pages about Christensen Field Airport

Update a link
 
Copyright © AirNav, LLC. All rights reserved. Privacy Policy  Contact